Weather reports worldwide

Advertisment
Cadiz, Spain (8452): temperature & dewpoint: 10.09.2019 17:00:00 - 16.09.2019 17:00:00 (CEST)Cadiz, Spain (8452): wind speed & gusts: 10.09.2019 17:00:00 - 16.09.2019 17:00:00 (CEST)Cadiz, Spain (8452): wind direction: 10.09.2019 17:00:00 - 16.09.2019 17:00:00 (CEST)Cadiz, Spain (8452): reduced air pressure: 10.09.2019 17:00:00 - 16.09.2019 17:00:00 (CEST)Cadiz, Spain (8452): precipitation: 10.09.2019 17:00:00 - 16.09.2019 17:00:00 (CEST)
Date & Time tt [°C] td [°C] ff [km/h] ff [kn] fx [km/h] fx [kn] dd ppp [hPa] rr [mm]
16.09.2019 17:00:00 - - - - - - - - -
16.09.2019 16:00:00 24,7 19,6 13 7 21 11 WSW 1018,5 0,0
16.09.2019 15:00:00 25,0 19,6 10 5 18 10 WSW 1018,9 0,0
16.09.2019 14:00:00 24,0 19,5 8 4 15 8 SW 1019,7 -
16.09.2019 13:00:00 22,4 19,3 6 3 12 7 SW 1020,3 0,0
16.09.2019 12:00:00 21,6 19,1 3 2 11 6 S 1020,2 0,0
16.09.2019 11:00:00 20,5 19,1 3 2 14 7 SSW 1020,1 0,0
16.09.2019 10:00:00 20,0 19,0 6 4 12 6 S 1019,7 0,0
16.09.2019 09:00:00 19,7 19,1 8 4 14 8 SSE 1019,2 0,0
16.09.2019 08:00:00 19,9 19,1 9 5 16 8 SSE 1018,8 -
16.09.2019 07:00:00 20,6 19,3 9 5 13 7 SSE 1018,4 0,0
16.09.2019 06:00:00 20,8 19,8 11 6 15 8 SE 1018,2 0,0
16.09.2019 05:00:00 20,7 19,6 5 3 12 7 S 1018,5 0,0
16.09.2019 04:00:00 20,8 19,4 6 3 12 6 S 1019,0 0,0
16.09.2019 03:00:00 21,0 19,8 7 4 12 6 SSE 1019,4 0,0
16.09.2019 02:00:00 21,3 19,9 6 3 10 5 S 1019,5 -
16.09.2019 01:00:00 21,5 19,8 6 3 10 5 S 1019,6 0,0
16.09.2019 00:00:00 21,7 19,6 3 2 5 3 S 1019,6 0,0
15.09.2019 23:00:00 21,6 19,3 2 1 11 6 SW 1019,5 0,0
15.09.2019 22:00:00 21,7 19,6 6 3 13 7 W 1019,1 0,0
15.09.2019 21:00:00 22,1 19,6 7 4 14 8 W 1018,5 0,0
15.09.2019 20:00:00 22,5 19,6 9 5 21 11 WNW 1018,4 -
15.09.2019 19:00:00 23,4 19,6 14 7 20 11 W 1018,3 0,0
15.09.2019 18:00:00 23,8 19,1 13 7 21 11 W 1018,4 0,0
15.09.2019 17:00:00 24,4 18,5 14 8 21 12 WSW 1018,6 0,0
15.09.2019 16:00:00 24,2 18,6 15 8 24 13 SW 1018,9 0,0
15.09.2019 15:00:00 24,2 19,1 12 6 24 13 SW 1019,3 0,0
15.09.2019 14:00:00 23,9 19,2 12 6 22 12 SW 1019,7 -
15.09.2019 13:00:00 23,7 19,0 11 6 18 10 SW 1019,9 0,0
15.09.2019 12:00:00 23,0 18,8 8 4 14 8 SSW 1019,9 0,0
15.09.2019 11:00:00 21,4 19,7 6 3 11 6 S 1019,5 0,0
15.09.2019 10:00:00 20,8 19,4 5 3 9 5 SSW 1019,0 0,0
15.09.2019 09:00:00 20,8 19,6 4 2 10 5 SSW 1018,7 0,0
15.09.2019 08:00:00 21,2 19,5 4 2 11 6 SSW 1018,4 -
15.09.2019 07:00:00 22,3 19,3 3 2 12 6 ESE 1018,3 0,0
15.09.2019 06:00:00 22,7 19,5 11 6 14 8 NE 1017,9 0,0
15.09.2019 05:00:00 23,5 20,5 4 2 8 5 ENE 1017,9 0,0
15.09.2019 04:00:00 23,4 20,3 4 2 8 5 ENE 1017,9 0,0
15.09.2019 03:00:00 23,6 20,3 3 2 10 5 E 1018,3 0,0
15.09.2019 02:00:00 23,7 20,3 8 5 16 9 E 1018,2 -
15.09.2019 01:00:00 23,8 20,3 8 5 21 11 E 1018,8 0,0
15.09.2019 00:00:00 23,7 20,3 16 9 21 11 ESE 1018,7 0,0
14.09.2019 23:00:00 24,1 20,3 5 3 15 8 E 1018,9 0,0
14.09.2019 22:00:00 24,2 20,1 7 4 12 6 E 1018,3 0,0
14.09.2019 21:00:00 23,8 19,5 6 3 16 8 WSW 1017,6 0,0
14.09.2019 20:00:00 25,2 19,6 3 1 16 9 SE 1017,3 -
14.09.2019 19:00:00 24,9 19,3 12 6 22 12 WNW 1016,9 0,0
14.09.2019 18:00:00 26,2 18,8 13 7 19 10 W 1016,7 0,0
14.09.2019 17:00:00 26,0 18,9 12 6 17 9 NW 1016,7 0,0
14.09.2019 16:00:00 25,6 19,5 10 5 25 14 NW 1017,1 0,0
14.09.2019 15:00:00 26,4 18,8 16 8 26 14 WSW 1017,2 0,0
14.09.2019 14:00:00 27,4 18,7 20 11 27 15 ESE 1017,5 -
14.09.2019 13:00:00 26,7 19,3 10 5 21 11 E 1018,1 0,0
14.09.2019 12:00:00 24,9 18,1 10 6 16 9 NE 1018,3 0,0
14.09.2019 11:00:00 24,2 18,6 11 6 17 9 ENE 1018,3 0,0
14.09.2019 10:00:00 22,7 18,0 8 5 14 8 NE 1018,3 0,0
14.09.2019 09:00:00 22,0 17,4 9 5 27 14 NNE 1018,1 0,0
14.09.2019 08:00:00 22,3 18,3 8 4 19 11 ENE 1017,7 -
14.09.2019 07:00:00 21,3 17,5 12 7 17 9 NE 1017,3 0,0
14.09.2019 06:00:00 21,6 17,2 13 7 19 11 NE 1016,9 0,0
14.09.2019 05:00:00 21,4 16,6 16 9 22 12 NNE 1017,4 0,0
14.09.2019 04:00:00 21,2 16,4 16 9 22 12 N 1017,5 0,0
14.09.2019 03:00:00 21,1 15,9 14 8 22 12 NNE 1018,1 0,0
14.09.2019 02:00:00 20,9 15,4 15 8 23 12 N 1018,6 -
14.09.2019 01:00:00 21,3 16,7 16 9 24 13 NNE 1019,1 0,0
14.09.2019 00:00:00 21,3 17,1 14 8 19 11 NNE 1019,3 0,0
13.09.2019 23:00:00 22,9 16,9 11 6 22 12 NE 1019,3 0,0
13.09.2019 22:00:00 23,1 16,9 10 5 22 12 ENE 1018,9 0,0
13.09.2019 21:00:00 23,9 17,9 19 10 29 15 ESE 1018,6 0,0
13.09.2019 20:00:00 24,6 17,6 19 10 27 14 E 1018,1 -
13.09.2019 19:00:00 24,6 17,6 17 9 32 17 E 1018,3 0,0
13.09.2019 18:00:00 25,0 16,4 22 12 32 17 E 1017,8 0,0
13.09.2019 17:00:00 23,5 17,2 16 9 26 14 NE 1018,1 0,0
13.09.2019 16:00:00 24,5 16,0 16 8 32 18 NNE 1017,9 0,7
13.09.2019 15:00:00 27,1 16,0 18 10 25 14 ESE 1017,8 0,0
13.09.2019 14:00:00 26,7 15,1 4 2 29 16 NNE 1018,3 -
13.09.2019 13:00:00 27,0 16,6 13 7 27 14 E 1018,7 0,0
13.09.2019 12:00:00 23,0 16,3 10 5 15 8 N 1019,3 0,0
13.09.2019 11:00:00 21,3 14,7 8 5 13 7 NE 1019,1 0,0
13.09.2019 10:00:00 20,7 14,3 4 2 12 6 ENE 1018,9 0,0
13.09.2019 09:00:00 19,7 13,9 5 3 14 7 N 1018,9 0,0
13.09.2019 08:00:00 20,0 14,3 9 5 13 7 NNE 1018,8 -
13.09.2019 07:00:00 20,3 14,2 6 3 14 7 ENE 1018,1 0,0
13.09.2019 06:00:00 20,7 15,0 13 7 18 10 NNE 1018,5 0,0
13.09.2019 05:00:00 21,4 15,7 10 5 29 16 E 1018,9 0,0
13.09.2019 04:00:00 21,5 15,3 16 9 27 15 E 1019,8 0,0
13.09.2019 03:00:00 21,9 14,5 18 10 27 15 E 1019,9 0,0
13.09.2019 02:00:00 22,5 14,3 22 12 29 16 ESE 1020,3 -
13.09.2019 01:00:00 22,7 13,5 7 4 23 12 NE 1020,7 0,0
13.09.2019 00:00:00 23,0 14,0 9 5 25 13 E 1021,1 0,0
12.09.2019 23:00:00 23,1 13,6 6 3 18 10 E 1021,2 0,0
12.09.2019 22:00:00 23,6 13,2 6 3 25 14 E 1021,2 0,0
12.09.2019 21:00:00 24,4 13,3 18 10 32 17 E 1020,5 0,0
12.09.2019 20:00:00 25,7 13,3 9 5 36 20 E 1020,5 -
12.09.2019 19:00:00 26,5 14,9 24 13 32 17 ESE 1020,3 0,0
12.09.2019 18:00:00 25,3 15,9 10 5 23 12 WSW 1020,4 0,0
12.09.2019 17:00:00 25,3 15,9 18 10 24 13 WSW 1020,4 0,0
12.09.2019 16:00:00 25,0 15,3 11 6 17 9 WSW 1020,9 0,0
12.09.2019 15:00:00 24,9 15,0 11 6 22 12 WSW 1021,1 0,0
12.09.2019 14:00:00 25,0 13,0 6 3 12 7 ESE 1021,3 -
12.09.2019 13:00:00 22,9 13,9 8 5 13 7 NNW 1021,6 0,0
12.09.2019 12:00:00 21,3 14,2 9 5 16 9 N 1021,6 0,0
12.09.2019 11:00:00 20,4 13,4 6 3 11 6 N 1021,5 0,0
12.09.2019 10:00:00 20,5 12,7 9 5 14 8 E 1021,0 0,0
12.09.2019 09:00:00 19,1 11,4 5 3 19 10 ENE 1020,6 0,0
12.09.2019 08:00:00 20,0 12,5 9 5 13 7 N 1020,0 -
12.09.2019 07:00:00 19,9 12,1 8 4 15 8 NNE 1020,2 0,0
12.09.2019 06:00:00 20,1 13,6 7 4 26 14 NNE 1019,6 0,0
12.09.2019 05:00:00 20,6 13,3 11 6 26 14 E 1019,7 0,0
12.09.2019 04:00:00 21,0 11,9 13 7 28 15 E 1019,6 0,0
12.09.2019 03:00:00 22,0 14,9 15 8 24 13 NNE 1019,2 0,0
12.09.2019 02:00:00 21,6 15,4 13 7 20 11 N 1019,6 -
12.09.2019 01:00:00 22,3 16,3 16 8 21 12 N 1019,7 0,0
12.09.2019 00:00:00 22,5 15,8 15 8 22 12 NNW 1019,9 0,0
11.09.2019 23:00:00 22,6 14,7 11 6 27 15 NW 1019,8 0,0
11.09.2019 22:00:00 22,9 15,3 18 10 32 17 NW 1019,0 0,0
11.09.2019 21:00:00 23,0 15,6 18 10 34 19 NW 1018,5 0,0
11.09.2019 20:00:00 25,2 16,9 16 9 32 17 WNW 1018,1 -
11.09.2019 19:00:00 27,8 10,0 26 14 38 21 NNE 1017,5 0,0
11.09.2019 18:00:00 27,4 9,3 27 14 40 22 NNE 1017,5 0,0
11.09.2019 17:00:00 26,7 9,6 23 12 39 21 NNE 1017,6 0,0
11.09.2019 16:00:00 25,9 10,0 20 11 40 22 NNE 1018,1 0,0
11.09.2019 15:00:00 25,4 8,8 25 14 37 20 NNE 1018,8 0,0
11.09.2019 14:00:00 24,3 9,4 21 12 35 19 NNE 1019,3 -
11.09.2019 13:00:00 23,4 9,0 24 13 37 20 NNE 1019,7 0,0
11.09.2019 12:00:00 22,3 9,4 23 12 34 19 NNE 1020,1 0,0
11.09.2019 11:00:00 21,1 9,0 22 12 36 19 NNE 1020,0 0,0
11.09.2019 10:00:00 19,4 16,2 8 5 12 6 N 1019,9 0,0
11.09.2019 09:00:00 17,9 15,9 6 4 10 5 NNE 1019,4 0,0
11.09.2019 08:00:00 17,9 16,0 7 4 14 7 NE 1018,7 -
11.09.2019 07:00:00 17,8 16,0 9 5 15 8 NE 1017,8 0,0
11.09.2019 06:00:00 18,2 16,4 5 3 10 6 NNE 1016,7 0,0
11.09.2019 05:00:00 19,2 17,4 6 3 10 5 NE 1017,0 0,0
11.09.2019 04:00:00 19,6 17,4 7 4 11 6 NE 1017,4 0,0
11.09.2019 03:00:00 20,4 17,2 3 2 6 4 W 1017,5 0,0
11.09.2019 02:00:00 20,9 17,3 5 3 10 6 E 1017,6 -
11.09.2019 01:00:00 21,7 17,3 3 2 17 9 ESE 1017,7 0,0
11.09.2019 00:00:00 23,2 15,3 11 6 23 13 NW 1017,4 0,0
10.09.2019 23:00:00 22,4 17,3 18 10 29 16 W 1017,0 0,0
10.09.2019 22:00:00 22,1 16,6 16 9 35 19 W 1016,9 0,0
10.09.2019 21:00:00 22,1 15,4 17 9 40 22 W 1016,3 0,0
10.09.2019 20:00:00 22,7 15,1 26 14 41 22 W 1015,9 -
10.09.2019 19:00:00 23,6 14,0 20 11 35 19 W 1016,0 0,0
10.09.2019 18:00:00 24,2 12,8 22 12 37 20 W 1016,4 0,0
10.09.2019 17:00:00 23,2 12,2 22 12 37 20 W 1017,1 0,0

tt = temperature
td = dewpoint
ff = wind speed
fx = gusts
dd = wind direction
ppp = reduced air pressure
rr = precipitation

Next stations